< < Back
Terminal Aerodrome Forecast


Current Version              Previous Versions:   1  2  3  4  5  6  7  8  9  

Terminal Aerodrome Forecast

004
FTUS42 KFFC 240500
TAFMCN
TAF
KMCN 240525Z 2406/2506 00000KT P6SM SCT250
     FM241600 27003KT P6SM SCT200=



Latest METAR

024
SAUS80 KWBC 241200 RRA
MTRMCN
METAR KMCN 241153Z 00000KT 10SM CLR 06/06 A3006 RMK AO2 SLP179 T00610061
10083 20061 51013


USA.gov is the U.S. government's official web portal to all federal, state and local government web resources and services.